sensor_id;sensor_type;location;lat;lon;timestamp;P1;durP1;ratioP1;P2;durP2;ratioP2
67508;SDS011;54354;44.724;11.284;2022-10-13T00:00:52;20.25;;;11.85;;
67508;SDS011;54354;44.724;11.284;2022-10-13T00:03:17;21.83;;;11.90;;
67508;SDS011;54354;44.724;11.284;2022-10-13T00:05:44;23.58;;;12.45;;
67508;SDS011;54354;44.724;11.284;2022-10-13T00:08:37;20.20;;;12.50;;
67508;SDS011;54354;44.724;11.284;2022-10-13T00:11:23;24.58;;;13.15;;
67508;SDS011;54354;44.724;11.284;2022-10-13T00:13:50;20.85;;;13.45;;
67508;SDS011;54354;44.724;11.284;2022-10-13T00:16:17;25.20;;;12.98;;
67508;SDS011;54354;44.724;11.284;2022-10-13T00:18:44;20.67;;;12.75;;
67508;SDS011;54354;44.724;11.284;2022-10-13T00:21:11;22.27;;;12.68;;
67508;SDS011;54354;44.724;11.284;2022-10-13T00:23:39;22.55;;;13.80;;
67508;SDS011;54354;44.724;11.284;2022-10-13T00:26:06;20.42;;;12.85;;
67508;SDS011;54354;44.724;11.284;2022-10-13T00:28:33;19.75;;;12.63;;
67508;SDS011;54354;44.724;11.284;2022-10-13T00:30:59;21.08;;;11.88;;
67508;SDS011;54354;44.724;11.284;2022-10-13T00:33:24;25.30;;;11.75;;
67508;SDS011;54354;44.724;11.284;2022-10-13T00:35:50;21.42;;;12.18;;
67508;SDS011;54354;44.724;11.284;2022-10-13T00:38:17;20.38;;;11.48;;
67508;SDS011;54354;44.724;11.284;2022-10-13T00:40:48;22.33;;;11.55;;
67508;SDS011;54354;44.724;11.284;2022-10-13T00:43:23;20.35;;;11.60;;
67508;SDS011;54354;44.724;11.284;2022-10-13T00:45:51;21.48;;;11.10;;
67508;SDS011;54354;44.724;11.284;2022-10-13T00:50:58;17.67;;;11.00;;
67508;SDS011;54354;44.724;11.284;2022-10-13T00:53:26;22.58;;;12.07;;
67508;SDS011;54354;44.724;11.284;2022-10-13T00:55:56;21.85;;;11.65;;
67508;SDS011;54354;44.724;11.284;2022-10-13T00:58:22;23.65;;;12.07;;
67508;SDS011;54354;44.724;11.284;2022-10-13T01:00:55;21.88;;;12.02;;
67508;SDS011;54354;44.724;11.284;2022-10-13T01:03:21;21.48;;;12.55;;
67508;SDS011;54354;44.724;11.284;2022-10-13T01:05:47;25.23;;;13.38;;
67508;SDS011;54354;44.724;11.284;2022-10-13T01:08:15;26.55;;;13.23;;
67508;SDS011;54354;44.724;11.284;2022-10-13T01:15:50;21.40;;;13.52;;
67508;SDS011;54354;44.724;11.284;2022-10-13T01:27:04;20.25;;;14.30;;
67508;SDS011;54354;44.724;11.284;2022-10-13T01:38:34;26.15;;;14.80;;
67508;SDS011;54354;44.724;11.284;2022-10-13T01:41:11;22.65;;;14.02;;
67508;SDS011;54354;44.724;11.284;2022-10-13T01:43:48;22.50;;;14.23;;
67508;SDS011;54354;44.724;11.284;2022-10-13T01:48:43;24.48;;;15.98;;
67508;SDS011;54354;44.724;11.284;2022-10-13T01:51:11;26.75;;;15.80;;
67508;SDS011;54354;44.724;11.284;2022-10-13T01:53:40;24.95;;;15.13;;
67508;SDS011;54354;44.724;11.284;2022-10-13T01:56:08;24.05;;;14.73;;
67508;SDS011;54354;44.724;11.284;2022-10-13T01:58:35;21.02;;;13.75;;
67508;SDS011;54354;44.724;11.284;2022-10-13T02:03:56;22.27;;;13.40;;
67508;SDS011;54354;44.724;11.284;2022-10-13T02:09:07;21.50;;;13.07;;
67508;SDS011;54354;44.724;11.284;2022-10-13T02:11:38;19.95;;;12.68;;
67508;SDS011;54354;44.724;11.284;2022-10-13T02:14:19;22.13;;;12.70;;
67508;SDS011;54354;44.724;11.284;2022-10-13T02:16:48;18.48;;;12.75;;
67508;SDS011;54354;44.724;11.284;2022-10-13T02:19:17;18.02;;;11.50;;
67508;SDS011;54354;44.724;11.284;2022-10-13T02:21:43;28.20;;;12.88;;
67508;SDS011;54354;44.724;11.284;2022-10-13T02:24:09;20.02;;;12.68;;
67508;SDS011;54354;44.724;11.284;2022-10-13T02:26:36;22.85;;;12.48;;
67508;SDS011;54354;44.724;11.284;2022-10-13T02:29:11;21.77;;;13.40;;
67508;SDS011;54354;44.724;11.284;2022-10-13T02:31:39;21.17;;;14.25;;
67508;SDS011;54354;44.724;11.284;2022-10-13T02:34:05;21.85;;;13.55;;
67508;SDS011;54354;44.724;11.284;2022-10-13T02:36:31;20.50;;;13.68;;
67508;SDS011;54354;44.724;11.284;2022-10-13T02:38:57;21.08;;;13.93;;
67508;SDS011;54354;44.724;11.284;2022-10-13T02:41:23;23.33;;;14.90;;
67508;SDS011;54354;44.724;11.284;2022-10-13T02:43:51;26.52;;;15.02;;
67508;SDS011;54354;44.724;11.284;2022-10-13T02:46:21;24.55;;;14.70;;
67508;SDS011;54354;44.724;11.284;2022-10-13T02:48:47;22.95;;;16.27;;
67508;SDS011;54354;44.724;11.284;2022-10-13T02:51:12;28.55;;;16.08;;
67508;SDS011;54354;44.724;11.284;2022-10-13T02:53:38;26.63;;;15.93;;
67508;SDS011;54354;44.724;11.284;2022-10-13T02:56:04;28.83;;;16.25;;
67508;SDS011;54354;44.724;11.284;2022-10-13T02:58:35;26.38;;;15.32;;
67508;SDS011;54354;44.724;11.284;2022-10-13T03:01:04;24.27;;;15.90;;
67508;SDS011;54354;44.724;11.284;2022-10-13T03:03:35;22.95;;;15.27;;
67508;SDS011;54354;44.724;11.284;2022-10-13T03:06:01;23.40;;;15.20;;
67508;SDS011;54354;44.724;11.284;2022-10-13T03:08:27;24.35;;;14.15;;
67508;SDS011;54354;44.724;11.284;2022-10-13T03:10:53;24.02;;;14.07;;
67508;SDS011;54354;44.724;11.284;2022-10-13T03:13:18;19.80;;;14.25;;
67508;SDS011;54354;44.724;11.284;2022-10-13T03:15:44;21.55;;;15.05;;
67508;SDS011;54354;44.724;11.284;2022-10-13T03:18:11;25.00;;;16.50;;
67508;SDS011;54354;44.724;11.284;2022-10-13T03:20:37;26.35;;;14.85;;
67508;SDS011;54354;44.724;11.284;2022-10-13T03:23:03;24.08;;;14.57;;
67508;SDS011;54354;44.724;11.284;2022-10-13T03:25:31;26.27;;;15.35;;
67508;SDS011;54354;44.724;11.284;2022-10-13T03:27:57;22.98;;;14.77;;
67508;SDS011;54354;44.724;11.284;2022-10-13T03:30:22;28.75;;;15.48;;
67508;SDS011;54354;44.724;11.284;2022-10-13T03:32:47;24.00;;;15.57;;
67508;SDS011;54354;44.724;11.284;2022-10-13T03:35:13;25.90;;;14.52;;
67508;SDS011;54354;44.724;11.284;2022-10-13T03:37:39;21.55;;;14.63;;
67508;SDS011;54354;44.724;11.284;2022-10-13T03:40:04;32.30;;;15.57;;
67508;SDS011;54354;44.724;11.284;2022-10-13T03:42:30;25.27;;;15.75;;
67508;SDS011;54354;44.724;11.284;2022-10-13T03:44:56;27.52;;;16.25;;
67508;SDS011;54354;44.724;11.284;2022-10-13T03:47:21;31.50;;;16.25;;
67508;SDS011;54354;44.724;11.284;2022-10-13T03:49:47;25.45;;;16.17;;
67508;SDS011;54354;44.724;11.284;2022-10-13T03:52:12;25.73;;;16.45;;
67508;SDS011;54354;44.724;11.284;2022-10-13T03:54:38;29.15;;;16.45;;
67508;SDS011;54354;44.724;11.284;2022-10-13T03:57:04;25.05;;;15.35;;
67508;SDS011;54354;44.724;11.284;2022-10-13T03:59:29;23.88;;;14.82;;
67508;SDS011;54354;44.724;11.284;2022-10-13T04:01:55;25.23;;;15.02;;
67508;SDS011;54354;44.724;11.284;2022-10-13T04:04:20;25.05;;;14.80;;
67508;SDS011;54354;44.724;11.284;2022-10-13T04:06:49;22.00;;;14.73;;
67508;SDS011;54354;44.724;11.284;2022-10-13T04:09:14;25.45;;;15.82;;
67508;SDS011;54354;44.724;11.284;2022-10-13T04:11:40;28.10;;;14.90;;
67508;SDS011;54354;44.724;11.284;2022-10-13T04:14:05;30.63;;;15.15;;
67508;SDS011;54354;44.724;11.284;2022-10-13T04:16:31;28.75;;;14.45;;
67508;SDS011;54354;44.724;11.284;2022-10-13T04:18:59;29.70;;;15.88;;
67508;SDS011;54354;44.724;11.284;2022-10-13T04:21:27;21.70;;;15.13;;
67508;SDS011;54354;44.724;11.284;2022-10-13T04:23:55;23.00;;;15.57;;
67508;SDS011;54354;44.724;11.284;2022-10-13T04:26:22;25.65;;;15.63;;
67508;SDS011;54354;44.724;11.284;2022-10-13T04:28:50;25.38;;;16.08;;
67508;SDS011;54354;44.724;11.284;2022-10-13T04:31:16;27.38;;;15.38;;
67508;SDS011;54354;44.724;11.284;2022-10-13T04:33:42;27.10;;;16.20;;
67508;SDS011;54354;44.724;11.284;2022-10-13T04:36:10;24.38;;;15.30;;
67508;SDS011;54354;44.724;11.284;2022-10-13T04:38:36;26.95;;;16.15;;
67508;SDS011;54354;44.724;11.284;2022-10-13T04:41:02;29.88;;;14.98;;
67508;SDS011;54354;44.724;11.284;2022-10-13T04:43:29;26.00;;;16.48;;
67508;SDS011;54354;44.724;11.284;2022-10-13T04:46:01;24.23;;;15.68;;
67508;SDS011;54354;44.724;11.284;2022-10-13T04:48:32;28.27;;;16.02;;
67508;SDS011;54354;44.724;11.284;2022-10-13T04:51:02;29.80;;;15.57;;
67508;SDS011;54354;44.724;11.284;2022-10-13T04:53:30;24.13;;;16.38;;
67508;SDS011;54354;44.724;11.284;2022-10-13T04:55:59;31.25;;;17.02;;
67508;SDS011;54354;44.724;11.284;2022-10-13T04:58:25;29.42;;;17.50;;
67508;SDS011;54354;44.724;11.284;2022-10-13T05:00:51;28.50;;;18.08;;
67508;SDS011;54354;44.724;11.284;2022-10-13T05:03:17;24.27;;;16.85;;
67508;SDS011;54354;44.724;11.284;2022-10-13T05:05:42;27.83;;;18.80;;
67508;SDS011;54354;44.724;11.284;2022-10-13T05:08:07;24.65;;;16.40;;
67508;SDS011;54354;44.724;11.284;2022-10-13T05:10:33;34.85;;;17.83;;
67508;SDS011;54354;44.724;11.284;2022-10-13T05:12:59;27.98;;;18.67;;
67508;SDS011;54354;44.724;11.284;2022-10-13T05:15:24;31.42;;;18.35;;
67508;SDS011;54354;44.724;11.284;2022-10-13T05:17:50;29.33;;;17.48;;
67508;SDS011;54354;44.724;11.284;2022-10-13T05:20:15;25.23;;;17.23;;
67508;SDS011;54354;44.724;11.284;2022-10-13T05:22:41;25.67;;;17.25;;
67508;SDS011;54354;44.724;11.284;2022-10-13T05:25:07;32.03;;;19.52;;
67508;SDS011;54354;44.724;11.284;2022-10-13T05:27:33;36.38;;;17.25;;
67508;SDS011;54354;44.724;11.284;2022-10-13T05:30:02;29.05;;;17.45;;
67508;SDS011;54354;44.724;11.284;2022-10-13T05:32:28;30.80;;;17.13;;
67508;SDS011;54354;44.724;11.284;2022-10-13T05:34:54;30.50;;;17.23;;
67508;SDS011;54354;44.724;11.284;2022-10-13T05:37:19;31.38;;;17.67;;
67508;SDS011;54354;44.724;11.284;2022-10-13T05:39:46;26.77;;;16.75;;
67508;SDS011;54354;44.724;11.284;2022-10-13T05:42:12;39.65;;;17.55;;
67508;SDS011;54354;44.724;11.284;2022-10-13T05:44:38;28.90;;;18.23;;
67508;SDS011;54354;44.724;11.284;2022-10-13T05:47:04;34.20;;;17.77;;
67508;SDS011;54354;44.724;11.284;2022-10-13T05:49:29;35.13;;;19.05;;
67508;SDS011;54354;44.724;11.284;2022-10-13T05:51:56;27.92;;;18.75;;
67508;SDS011;54354;44.724;11.284;2022-10-13T05:54:27;32.88;;;18.27;;
67508;SDS011;54354;44.724;11.284;2022-10-13T05:59:34;29.10;;;15.70;;
67508;SDS011;54354;44.724;11.284;2022-10-13T06:02:04;27.33;;;17.10;;
67508;SDS011;54354;44.724;11.284;2022-10-13T06:04:34;30.67;;;17.33;;
67508;SDS011;54354;44.724;11.284;2022-10-13T06:07:03;26.23;;;16.55;;
67508;SDS011;54354;44.724;11.284;2022-10-13T06:09:31;31.65;;;18.67;;
67508;SDS011;54354;44.724;11.284;2022-10-13T06:11:59;31.85;;;18.23;;
67508;SDS011;54354;44.724;11.284;2022-10-13T06:14:24;28.58;;;17.13;;
67508;SDS011;54354;44.724;11.284;2022-10-13T06:16:50;28.15;;;18.10;;
67508;SDS011;54354;44.724;11.284;2022-10-13T06:19:15;33.55;;;18.98;;
67508;SDS011;54354;44.724;11.284;2022-10-13T06:21:41;30.80;;;17.95;;
67508;SDS011;54354;44.724;11.284;2022-10-13T06:24:07;35.90;;;19.60;;
67508;SDS011;54354;44.724;11.284;2022-10-13T06:26:33;34.47;;;18.33;;
67508;SDS011;54354;44.724;11.284;2022-10-13T06:28:58;35.35;;;20.00;;
67508;SDS011;54354;44.724;11.284;2022-10-13T06:31:24;32.03;;;20.92;;
67508;SDS011;54354;44.724;11.284;2022-10-13T06:33:49;36.42;;;23.00;;
67508;SDS011;54354;44.724;11.284;2022-10-13T06:36:15;39.20;;;23.52;;
67508;SDS011;54354;44.724;11.284;2022-10-13T06:38:40;38.20;;;24.83;;
67508;SDS011;54354;44.724;11.284;2022-10-13T06:41:06;39.78;;;22.25;;
67508;SDS011;54354;44.724;11.284;2022-10-13T06:43:34;35.60;;;22.83;;
67508;SDS011;54354;44.724;11.284;2022-10-13T06:46:01;37.78;;;23.25;;
67508;SDS011;54354;44.724;11.284;2022-10-13T06:48:27;35.55;;;24.45;;
67508;SDS011;54354;44.724;11.284;2022-10-13T06:50:52;42.97;;;25.13;;
67508;SDS011;54354;44.724;11.284;2022-10-13T06:53:18;39.03;;;25.17;;
67508;SDS011;54354;44.724;11.284;2022-10-13T06:55:44;41.20;;;25.45;;
67508;SDS011;54354;44.724;11.284;2022-10-13T06:58:09;42.47;;;25.15;;
67508;SDS011;54354;44.724;11.284;2022-10-13T07:00:35;43.28;;;25.23;;
67508;SDS011;54354;44.724;11.284;2022-10-13T07:03:01;43.03;;;26.17;;
67508;SDS011;54354;44.724;11.284;2022-10-13T07:05:27;46.42;;;25.30;;
67508;SDS011;54354;44.724;11.284;2022-10-13T07:07:53;43.75;;;24.38;;
67508;SDS011;54354;44.724;11.284;2022-10-13T07:10:19;44.45;;;26.10;;
67508;SDS011;54354;44.724;11.284;2022-10-13T07:12:45;43.60;;;27.40;;
67508;SDS011;54354;44.724;11.284;2022-10-13T07:15:10;46.90;;;26.33;;
67508;SDS011;54354;44.724;11.284;2022-10-13T07:17:35;48.17;;;27.55;;
67508;SDS011;54354;44.724;11.284;2022-10-13T07:20:02;43.20;;;25.52;;
67508;SDS011;54354;44.724;11.284;2022-10-13T07:22:28;34.42;;;25.83;;
67508;SDS011;54354;44.724;11.284;2022-10-13T07:24:55;44.10;;;25.80;;
67508;SDS011;54354;44.724;11.284;2022-10-13T07:27:22;44.92;;;27.17;;
67508;SDS011;54354;44.724;11.284;2022-10-13T07:29:48;45.08;;;27.05;;
67508;SDS011;54354;44.724;11.284;2022-10-13T07:32:13;46.47;;;28.80;;
67508;SDS011;54354;44.724;11.284;2022-10-13T07:34:39;41.42;;;26.52;;
67508;SDS011;54354;44.724;11.284;2022-10-13T07:37:04;40.55;;;27.92;;
67508;SDS011;54354;44.724;11.284;2022-10-13T07:39:30;42.72;;;27.80;;
67508;SDS011;54354;44.724;11.284;2022-10-13T07:41:56;47.88;;;28.17;;
67508;SDS011;54354;44.724;11.284;2022-10-13T07:44:21;42.08;;;27.83;;
67508;SDS011;54354;44.724;11.284;2022-10-13T07:46:47;48.15;;;28.50;;
67508;SDS011;54354;44.724;11.284;2022-10-13T07:49:12;53.42;;;28.52;;
67508;SDS011;54354;44.724;11.284;2022-10-13T07:51:38;49.85;;;28.70;;
67508;SDS011;54354;44.724;11.284;2022-10-13T07:54:03;51.90;;;29.13;;
67508;SDS011;54354;44.724;11.284;2022-10-13T07:56:31;49.20;;;28.50;;
67508;SDS011;54354;44.724;11.284;2022-10-13T07:58:57;47.67;;;28.52;;
67508;SDS011;54354;44.724;11.284;2022-10-13T08:01:22;49.42;;;28.50;;
67508;SDS011;54354;44.724;11.284;2022-10-13T08:03:48;43.58;;;27.27;;
67508;SDS011;54354;44.724;11.284;2022-10-13T08:06:16;49.30;;;27.45;;
67508;SDS011;54354;44.724;11.284;2022-10-13T08:08:42;48.00;;;28.38;;
67508;SDS011;54354;44.724;11.284;2022-10-13T08:11:11;47.95;;;29.80;;
67508;SDS011;54354;44.724;11.284;2022-10-13T08:13:38;44.08;;;28.55;;
67508;SDS011;54354;44.724;11.284;2022-10-13T08:16:11;43.83;;;28.38;;
67508;SDS011;54354;44.724;11.284;2022-10-13T08:18:37;38.83;;;26.88;;
67508;SDS011;54354;44.724;11.284;2022-10-13T08:21:02;48.53;;;28.77;;
67508;SDS011;54354;44.724;11.284;2022-10-13T08:23:28;49.70;;;28.67;;
67508;SDS011;54354;44.724;11.284;2022-10-13T08:25:55;43.65;;;27.05;;
67508;SDS011;54354;44.724;11.284;2022-10-13T08:28:24;42.55;;;26.33;;
67508;SDS011;54354;44.724;11.284;2022-10-13T08:30:52;40.70;;;26.35;;
67508;SDS011;54354;44.724;11.284;2022-10-13T08:33:19;40.17;;;25.10;;
67508;SDS011;54354;44.724;11.284;2022-10-13T08:35:45;51.45;;;26.73;;
67508;SDS011;54354;44.724;11.284;2022-10-13T08:38:10;43.45;;;25.90;;
67508;SDS011;54354;44.724;11.284;2022-10-13T08:40:37;45.80;;;25.77;;
67508;SDS011;54354;44.724;11.284;2022-10-13T08:43:04;37.60;;;24.98;;
67508;SDS011;54354;44.724;11.284;2022-10-13T08:45:32;48.97;;;26.35;;
67508;SDS011;54354;44.724;11.284;2022-10-13T08:48:10;48.00;;;24.42;;
67508;SDS011;54354;44.724;11.284;2022-10-13T08:50:40;41.05;;;24.42;;
67508;SDS011;54354;44.724;11.284;2022-10-13T08:53:13;39.30;;;25.20;;
67508;SDS011;54354;44.724;11.284;2022-10-13T08:58:53;42.60;;;24.50;;
67508;SDS011;54354;44.724;11.284;2022-10-13T09:06:23;44.20;;;22.95;;
67508;SDS011;54354;44.724;11.284;2022-10-13T09:09:01;37.50;;;23.33;;
67508;SDS011;54354;44.724;11.284;2022-10-13T09:11:29;36.83;;;22.50;;
67508;SDS011;54354;44.724;11.284;2022-10-13T09:13:59;38.33;;;20.60;;
67508;SDS011;54354;44.724;11.284;2022-10-13T09:16:37;33.55;;;20.83;;
67508;SDS011;54354;44.724;11.284;2022-10-13T09:21:54;37.17;;;19.45;;
67508;SDS011;54354;44.724;11.284;2022-10-13T09:24:22;30.25;;;18.35;;
67508;SDS011;54354;44.724;11.284;2022-10-13T09:26:50;28.45;;;19.60;;
67508;SDS011;54354;44.724;11.284;2022-10-13T09:29:27;34.28;;;20.67;;
67508;SDS011;54354;44.724;11.284;2022-10-13T09:32:05;36.47;;;19.17;;
67508;SDS011;54354;44.724;11.284;2022-10-13T09:34:51;33.65;;;18.80;;
67508;SDS011;54354;44.724;11.284;2022-10-13T09:37:20;33.35;;;19.23;;
67508;SDS011;54354;44.724;11.284;2022-10-13T09:42:36;26.00;;;16.10;;
67508;SDS011;54354;44.724;11.284;2022-10-13T09:45:15;22.67;;;15.48;;
67508;SDS011;54354;44.724;11.284;2022-10-13T09:47:54;23.15;;;12.43;;
67508;SDS011;54354;44.724;11.284;2022-10-13T09:50:22;21.33;;;14.02;;
67508;SDS011;54354;44.724;11.284;2022-10-13T09:52:50;22.00;;;13.02;;
67508;SDS011;54354;44.724;11.284;2022-10-13T09:55:32;27.23;;;14.05;;
67508;SDS011;54354;44.724;11.284;2022-10-13T09:58:09;24.00;;;14.32;;
67508;SDS011;54354;44.724;11.284;2022-10-13T10:00:41;24.27;;;14.50;;
67508;SDS011;54354;44.724;11.284;2022-10-13T10:03:13;24.52;;;14.20;;
67508;SDS011;54354;44.724;11.284;2022-10-13T10:08:59;21.45;;;12.13;;
67508;SDS011;54354;44.724;11.284;2022-10-13T10:22:09;14.27;;;10.80;;
67508;SDS011;54354;44.724;11.284;2022-10-13T10:28:03;15.65;;;10.38;;
67508;SDS011;54354;44.724;11.284;2022-10-13T10:30:34;18.90;;;9.27;;
67508;SDS011;54354;44.724;11.284;2022-10-13T10:33:10;17.02;;;10.88;;
67508;SDS011;54354;44.724;11.284;2022-10-13T10:48:53;17.58;;;9.00;;
67508;SDS011;54354;44.724;11.284;2022-10-13T10:51:25;20.42;;;9.00;;
67508;SDS011;54354;44.724;11.284;2022-10-13T10:56:33;15.73;;;8.90;;
67508;SDS011;54354;44.724;11.284;2022-10-13T10:59:05;18.25;;;8.65;;
67508;SDS011;54354;44.724;11.284;2022-10-13T11:01:59;11.57;;;8.75;;
67508;SDS011;54354;44.724;11.284;2022-10-13T11:07:12;13.05;;;9.35;;
67508;SDS011;54354;44.724;11.284;2022-10-13T11:17:37;18.85;;;10.10;;
67508;SDS011;54354;44.724;11.284;2022-10-13T11:25:35;16.65;;;10.82;;
67508;SDS011;54354;44.724;11.284;2022-10-13T11:30:46;14.43;;;9.70;;
67508;SDS011;54354;44.724;11.284;2022-10-13T11:33:31;18.10;;;9.50;;
67508;SDS011;54354;44.724;11.284;2022-10-13T11:38:56;20.63;;;9.38;;
67508;SDS011;54354;44.724;11.284;2022-10-13T11:41:40;15.68;;;9.23;;
67508;SDS011;54354;44.724;11.284;2022-10-13T11:44:26;13.20;;;9.80;;
67508;SDS011;54354;44.724;11.284;2022-10-13T11:57:17;12.23;;;8.32;;
67508;SDS011;54354;44.724;11.284;2022-10-13T11:59:45;11.38;;;8.75;;
67508;SDS011;54354;44.724;11.284;2022-10-13T12:02:13;13.75;;;8.27;;
67508;SDS011;54354;44.724;11.284;2022-10-13T12:04:41;17.65;;;8.73;;
67508;SDS011;54354;44.724;11.284;2022-10-13T12:07:10;15.85;;;8.85;;
67508;SDS011;54354;44.724;11.284;2022-10-13T12:09:47;15.15;;;8.07;;
67508;SDS011;54354;44.724;11.284;2022-10-13T12:12:16;11.48;;;8.38;;
67508;SDS011;54354;44.724;11.284;2022-10-13T12:14:45;15.13;;;8.07;;
67508;SDS011;54354;44.724;11.284;2022-10-13T12:17:37;16.33;;;7.93;;
67508;SDS011;54354;44.724;11.284;2022-10-13T12:23:02;15.68;;;8.30;;
67508;SDS011;54354;44.724;11.284;2022-10-13T12:25:28;15.50;;;8.18;;
67508;SDS011;54354;44.724;11.284;2022-10-13T12:27:58;17.92;;;9.43;;
67508;SDS011;54354;44.724;11.284;2022-10-13T12:30:34;12.57;;;8.55;;
67508;SDS011;54354;44.724;11.284;2022-10-13T12:33:01;16.13;;;9.18;;
67508;SDS011;54354;44.724;11.284;2022-10-13T12:35:29;12.55;;;8.63;;
67508;SDS011;54354;44.724;11.284;2022-10-13T12:37:59;15.10;;;8.18;;
67508;SDS011;54354;44.724;11.284;2022-10-13T12:40:27;14.35;;;7.70;;
67508;SDS011;54354;44.724;11.284;2022-10-13T12:42:53;14.13;;;8.00;;
67508;SDS011;54354;44.724;11.284;2022-10-13T12:45:20;12.32;;;7.43;;
67508;SDS011;54354;44.724;11.284;2022-10-13T12:47:49;15.57;;;8.23;;
67508;SDS011;54354;44.724;11.284;2022-10-13T12:52:49;12.23;;;8.25;;
67508;SDS011;54354;44.724;11.284;2022-10-13T12:55:44;12.40;;;8.45;;
67508;SDS011;54354;44.724;11.284;2022-10-13T12:58:17;10.75;;;7.70;;
67508;SDS011;54354;44.724;11.284;2022-10-13T13:00:55;11.00;;;7.78;;
67508;SDS011;54354;44.724;11.284;2022-10-13T13:03:25;11.20;;;7.30;;
67508;SDS011;54354;44.724;11.284;2022-10-13T13:06:38;10.15;;;7.60;;
67508;SDS011;54354;44.724;11.284;2022-10-13T13:08:39;17.23;;;8.20;;
67508;SDS011;54354;44.724;11.284;2022-10-13T13:11:15;12.40;;;7.60;;
67508;SDS011;54354;44.724;11.284;2022-10-13T13:13:46;9.73;;;7.30;;
67508;SDS011;54354;44.724;11.284;2022-10-13T13:18:43;11.80;;;6.95;;
67508;SDS011;54354;44.724;11.284;2022-10-13T13:21:11;13.77;;;6.82;;
67508;SDS011;54354;44.724;11.284;2022-10-13T13:23:40;10.20;;;7.25;;
67508;SDS011;54354;44.724;11.284;2022-10-13T13:28:44;11.18;;;6.55;;
67508;SDS011;54354;44.724;11.284;2022-10-13T13:31:15;13.98;;;6.90;;
67508;SDS011;54354;44.724;11.284;2022-10-13T13:33:42;11.50;;;6.85;;
67508;SDS011;54354;44.724;11.284;2022-10-13T13:36:12;12.15;;;7.13;;
67508;SDS011;54354;44.724;11.284;2022-10-13T13:38:42;13.00;;;6.55;;
67508;SDS011;54354;44.724;11.284;2022-10-13T13:41:09;9.82;;;6.95;;
67508;SDS011;54354;44.724;11.284;2022-10-13T13:43:35;20.60;;;7.05;;
67508;SDS011;54354;44.724;11.284;2022-10-13T13:46:01;9.52;;;6.72;;
67508;SDS011;54354;44.724;11.284;2022-10-13T13:48:27;14.73;;;7.30;;
67508;SDS011;54354;44.724;11.284;2022-10-13T13:50:53;10.65;;;6.97;;
67508;SDS011;54354;44.724;11.284;2022-10-13T13:53:18;13.57;;;6.72;;
67508;SDS011;54354;44.724;11.284;2022-10-13T13:55:44;12.27;;;6.35;;
67508;SDS011;54354;44.724;11.284;2022-10-13T13:58:11;10.77;;;6.22;;
67508;SDS011;54354;44.724;11.284;2022-10-13T14:00:37;16.70;;;6.65;;
67508;SDS011;54354;44.724;11.284;2022-10-13T14:03:02;15.30;;;5.80;;
67508;SDS011;54354;44.724;11.284;2022-10-13T14:05:28;9.10;;;6.35;;
67508;SDS011;54354;44.724;11.284;2022-10-13T14:07:54;7.32;;;6.32;;
67508;SDS011;54354;44.724;11.284;2022-10-13T14:10:22;9.98;;;6.07;;
67508;SDS011;54354;44.724;11.284;2022-10-13T14:12:48;8.80;;;5.75;;
67508;SDS011;54354;44.724;11.284;2022-10-13T14:15:15;11.80;;;6.07;;
67508;SDS011;54354;44.724;11.284;2022-10-13T14:17:40;9.65;;;6.00;;
67508;SDS011;54354;44.724;11.284;2022-10-13T14:20:06;12.90;;;6.05;;
67508;SDS011;54354;44.724;11.284;2022-10-13T14:22:36;11.15;;;6.05;;
67508;SDS011;54354;44.724;11.284;2022-10-13T14:25:03;11.32;;;6.15;;
67508;SDS011;54354;44.724;11.284;2022-10-13T14:27:29;7.97;;;5.68;;
67508;SDS011;54354;44.724;11.284;2022-10-13T14:29:58;12.38;;;6.25;;
67508;SDS011;54354;44.724;11.284;2022-10-13T14:32:23;9.35;;;6.10;;
67508;SDS011;54354;44.724;11.284;2022-10-13T14:34:49;10.35;;;5.93;;
67508;SDS011;54354;44.724;11.284;2022-10-13T14:37:14;16.45;;;12.63;;
67508;SDS011;54354;44.724;11.284;2022-10-13T14:39:40;19.23;;;11.57;;
67508;SDS011;54354;44.724;11.284;2022-10-13T14:42:05;10.15;;;6.70;;
67508;SDS011;54354;44.724;11.284;2022-10-13T14:44:30;12.75;;;6.28;;
67508;SDS011;54354;44.724;11.284;2022-10-13T14:46:57;9.10;;;6.03;;
67508;SDS011;54354;44.724;11.284;2022-10-13T14:49:23;8.80;;;5.88;;
67508;SDS011;54354;44.724;11.284;2022-10-13T14:51:49;11.98;;;6.43;;
67508;SDS011;54354;44.724;11.284;2022-10-13T14:54:16;15.75;;;6.63;;
67508;SDS011;54354;44.724;11.284;2022-10-13T14:56:41;12.43;;;6.30;;
67508;SDS011;54354;44.724;11.284;2022-10-13T14:59:08;12.63;;;5.97;;
67508;SDS011;54354;44.724;11.284;2022-10-13T15:01:36;10.05;;;5.85;;
67508;SDS011;54354;44.724;11.284;2022-10-13T15:04:03;15.85;;;6.60;;
67508;SDS011;54354;44.724;11.284;2022-10-13T15:06:29;11.93;;;6.03;;
67508;SDS011;54354;44.724;11.284;2022-10-13T15:08:55;7.55;;;5.70;;
67508;SDS011;54354;44.724;11.284;2022-10-13T15:11:22;12.68;;;6.40;;
67508;SDS011;54354;44.724;11.284;2022-10-13T15:13:48;11.48;;;6.13;;
67508;SDS011;54354;44.724;11.284;2022-10-13T15:16:14;12.73;;;6.90;;
67508;SDS011;54354;44.724;11.284;2022-10-13T15:18:45;11.75;;;6.15;;
67508;SDS011;54354;44.724;11.284;2022-10-13T15:21:11;10.50;;;6.10;;
67508;SDS011;54354;44.724;11.284;2022-10-13T15:23:36;16.02;;;5.80;;
67508;SDS011;54354;44.724;11.284;2022-10-13T15:26:03;8.70;;;6.20;;
67508;SDS011;54354;44.724;11.284;2022-10-13T15:28:33;9.32;;;6.13;;
67508;SDS011;54354;44.724;11.284;2022-10-13T15:31:03;11.02;;;6.05;;
67508;SDS011;54354;44.724;11.284;2022-10-13T15:33:30;11.48;;;6.18;;
67508;SDS011;54354;44.724;11.284;2022-10-13T15:35:56;11.00;;;5.57;;
67508;SDS011;54354;44.724;11.284;2022-10-13T15:38:21;14.35;;;6.40;;
67508;SDS011;54354;44.724;11.284;2022-10-13T15:40:47;14.88;;;6.50;;
67508;SDS011;54354;44.724;11.284;2022-10-13T15:43:13;14.18;;;6.00;;
67508;SDS011;54354;44.724;11.284;2022-10-13T15:45:39;14.93;;;5.85;;
67508;SDS011;54354;44.724;11.284;2022-10-13T15:48:05;17.25;;;6.30;;
67508;SDS011;54354;44.724;11.284;2022-10-13T15:50:32;11.18;;;6.30;;
67508;SDS011;54354;44.724;11.284;2022-10-13T15:52:58;12.05;;;6.10;;
67508;SDS011;54354;44.724;11.284;2022-10-13T15:55:23;12.48;;;7.00;;
67508;SDS011;54354;44.724;11.284;2022-10-13T15:57:49;12.60;;;6.72;;
67508;SDS011;54354;44.724;11.284;2022-10-13T16:00:15;10.65;;;6.68;;
67508;SDS011;54354;44.724;11.284;2022-10-13T16:02:41;8.40;;;6.20;;
67508;SDS011;54354;44.724;11.284;2022-10-13T16:05:08;8.77;;;7.15;;
67508;SDS011;54354;44.724;11.284;2022-10-13T16:07:35;13.07;;;6.70;;
67508;SDS011;54354;44.724;11.284;2022-10-13T16:10:02;16.33;;;6.90;;
67508;SDS011;54354;44.724;11.284;2022-10-13T16:12:28;9.88;;;6.20;;
67508;SDS011;54354;44.724;11.284;2022-10-13T16:14:53;10.80;;;6.97;;
67508;SDS011;54354;44.724;11.284;2022-10-13T16:17:19;13.63;;;6.95;;
67508;SDS011;54354;44.724;11.284;2022-10-13T16:19:45;22.42;;;6.65;;
67508;SDS011;54354;44.724;11.284;2022-10-13T16:22:14;16.85;;;7.10;;
67508;SDS011;54354;44.724;11.284;2022-10-13T16:24:40;11.27;;;5.90;;